Time;durP1;ratioP1;P1;durP2;ratioP2;P2;SDS_P1;SDS_P2;PMS_P1;PMS_P2;Temp;Humidity;BMP_temperature;BMP_pressure;BME280_temperature;BME280_humidity;BME280_pressure;Samples;Min_cycle;Max_cycle;Signal;HPM_P1;HPM_P2
2024/01/05 00:00:18;;;;;;;5.40;2.80;;;;;;;;;;82349;276;3027889;-30
2024/01/05 00:03:34;;;;;;;5.30;2.70;;;;;;;;;;82364;280;3033111;-30
2024/01/05 00:06:14;;;;;;;4.60;2.70;;;;;;;;;;81398;284;3030509;-30
2024/01/05 00:08:51;;;;;;;5.10;2.70;;;;;;;;;;81008;276;3031604;-29
2024/01/05 00:11:29;;;;;;;4.80;2.50;;;;;;;;;;80969;283;3028643;-29
2024/01/05 00:14:09;;;;;;;4.50;2.50;;;;;;;;;;81009;283;3034158;-29
2024/01/05 00:16:47;;;;;;;4.90;2.70;;;;;;;;;;81012;276;3030873;-29
2024/01/05 00:19:24;;;;;;;5.10;2.90;;;;;;;;;;81039;276;3031607;-29
2024/01/05 00:22:01;;;;;;;5.00;2.60;;;;;;;;;;81000;280;3028527;-29
2024/01/05 00:24:40;;;;;;;4.30;2.40;;;;;;;;;;81082;272;3027465;-30
2024/01/05 00:27:18;;;;;;;4.60;2.80;;;;;;;;;;81035;268;3031099;-29
2024/01/05 00:29:54;;;;;;;4.60;2.80;;;;;;;;;;81299;276;3031711;-29
2024/01/05 00:32:30;;;;;;;4.30;2.60;;;;;;;;;;80968;283;3028491;-29
2024/01/05 00:35:11;;;;;;;4.70;2.70;;;;;;;;;;80994;276;3027450;-29
2024/01/05 00:37:47;;;;;;;4.60;2.70;;;;;;;;;;82377;280;3030675;-29
2024/01/05 00:40:23;;;;;;;4.90;2.60;;;;;;;;;;81314;280;3031293;-29
2024/01/05 00:43:02;;;;;;;4.10;2.40;;;;;;;;;;81027;271;3027911;-29
2024/01/05 00:45:39;;;;;;;4.30;2.40;;;;;;;;;;81056;275;3027965;-29
2024/01/05 00:48:16;;;;;;;4.40;2.30;;;;;;;;;;81064;275;3030847;-29
2024/01/05 00:50:52;;;;;;;5.30;2.80;;;;;;;;;;81002;283;3031951;-29
2024/01/05 00:53:29;;;;;;;4.90;2.50;;;;;;;;;;80915;284;3028707;-29
2024/01/05 00:56:06;;;;;;;4.10;2.30;;;;;;;;;;81005;283;3028154;-30
2024/01/05 00:58:45;;;;;;;4.50;2.50;;;;;;;;;;81742;276;3032131;-30
2024/01/05 01:01:21;;;;;;;4.80;2.50;;;;;;;;;;80992;283;3031585;-30
2024/01/05 01:03:58;;;;;;;4.80;2.50;;;;;;;;;;80985;272;3028026;-30
2024/01/05 01:06:37;;;;;;;4.30;2.40;;;;;;;;;;81041;284;3027358;-30
2024/01/05 01:09:13;;;;;;;4.30;2.30;;;;;;;;;;80955;283;3030681;-30
2024/01/05 01:11:53;;;;;;;4.10;2.10;;;;;;;;;;80996;284;3031341;-30
2024/01/05 01:14:29;;;;;;;5.00;2.60;;;;;;;;;;80978;283;3028765;-30
2024/01/05 01:17:05;;;;;;;4.30;2.50;;;;;;;;;;80995;276;3027325;-30
2024/01/05 01:19:43;;;;;;;4.20;2.40;;;;;;;;;;80993;276;3030496;-30
2024/01/05 01:22:20;;;;;;;4.20;2.20;;;;;;;;;;81008;276;3031824;-30
2024/01/05 01:24:57;;;;;;;4.10;2.30;;;;;;;;;;81015;284;3028547;-30
2024/01/05 01:27:34;;;;;;;5.10;2.40;;;;;;;;;;81029;276;3027536;-30
2024/01/05 01:30:17;;;;;;;3.90;2.10;;;;;;;;;;80992;284;3031387;-30
2024/01/05 01:32:53;;;;;;;4.30;2.40;;;;;;;;;;81212;272;3031788;-30
2024/01/05 01:35:33;;;;;;;4.20;2.40;;;;;;;;;;80966;272;3027983;-30
2024/01/05 01:38:10;;;;;;;4.20;2.40;;;;;;;;;;80027;276;3027411;-30
2024/01/05 01:40:52;;;;;;;4.20;2.30;;;;;;;;;;80988;283;3033389;-30
2024/01/05 01:43:30;;;;;;;4.20;2.40;;;;;;;;;;81059;275;3031594;-30
2024/01/05 01:46:07;;;;;;;4.10;2.20;;;;;;;;;;82410;279;3033779;-30
2024/01/05 01:48:45;;;;;;;4.30;2.40;;;;;;;;;;82264;279;3027636;-30
2024/01/05 01:51:28;;;;;;;4.10;2.20;;;;;;;;;;81024;283;3030756;-30
2024/01/05 01:54:08;;;;;;;4.20;2.20;;;;;;;;;;81365;272;3032549;-30
2024/01/05 01:56:47;;;;;;;4.40;2.20;;;;;;;;;;81059;276;3027871;-30
2024/01/05 01:59:23;;;;;;;4.10;2.20;;;;;;;;;;82371;279;3027321;-30
2024/01/05 02:02:00;;;;;;;4.10;2.30;;;;;;;;;;81082;284;3031094;-30
2024/01/05 02:04:37;;;;;;;4.20;2.00;;;;;;;;;;82326;284;3031222;-30
2024/01/05 02:07:14;;;;;;;4.10;2.20;;;;;;;;;;82395;280;3027993;-30
2024/01/05 02:09:50;;;;;;;3.90;2.30;;;;;;;;;;81718;279;3027859;-30
2024/01/05 02:12:26;;;;;;;4.20;2.10;;;;;;;;;;80985;280;3029336;-30
2024/01/05 02:15:06;;;;;;;4.10;2.10;;;;;;;;;;80975;283;3032129;-30
2024/01/05 02:17:42;;;;;;;4.00;2.10;;;;;;;;;;82361;276;3028068;-30
2024/01/05 02:20:18;;;;;;;3.80;2.20;;;;;;;;;;82415;272;3027087;-30
2024/01/05 02:23:01;;;;;;;3.60;1.90;;;;;;;;;;82343;276;3030733;-30
2024/01/05 02:25:38;;;;;;;3.70;1.90;;;;;;;;;;82366;280;3031601;-30
2024/01/05 02:28:13;;;;;;;3.90;2.00;;;;;;;;;;82369;276;3028032;-30
2024/01/05 02:30:49;;;;;;;3.90;1.90;;;;;;;;;;82410;276;3027779;-30
2024/01/05 02:33:26;;;;;;;3.80;1.80;;;;;;;;;;82406;272;3030330;-30
2024/01/05 02:36:02;;;;;;;4.10;2.10;;;;;;;;;;82339;276;3031398;-30
2024/01/05 02:38:38;;;;;;;3.60;2.00;;;;;;;;;;82347;280;3028344;-30
2024/01/05 02:41:14;;;;;;;3.50;1.80;;;;;;;;;;82424;279;3027630;-30
2024/01/05 02:43:50;;;;;;;4.30;1.90;;;;;;;;;;82368;279;3031312;-30
2024/01/05 02:46:26;;;;;;;4.10;2.00;;;;;;;;;;82402;279;3031952;-30
2024/01/05 02:49:03;;;;;;;4.10;2.00;;;;;;;;;;82375;287;3028340;-30
2024/01/05 02:51:39;;;;;;;3.60;1.60;;;;;;;;;;82452;276;3027647;-30
2024/01/05 02:54:17;;;;;;;4.20;1.80;;;;;;;;;;82338;284;3030769;-30
2024/01/05 02:56:53;;;;;;;3.30;1.60;;;;;;;;;;82393;284;3031989;-30
2024/01/05 02:59:29;;;;;;;3.70;1.90;;;;;;;;;;82373;276;3028331;-30
2024/01/05 03:02:05;;;;;;;4.00;1.80;;;;;;;;;;82144;272;3027423;-30
2024/01/05 03:04:44;;;;;;;3.80;1.90;;;;;;;;;;81039;280;3031098;-30
2024/01/05 03:07:22;;;;;;;3.80;1.90;;;;;;;;;;81035;284;3031613;-30
2024/01/05 03:09:59;;;;;;;4.00;2.00;;;;;;;;;;81006;283;3028531;-30
2024/01/05 03:12:36;;;;;;;4.60;1.90;;;;;;;;;;81018;284;3027490;-30
2024/01/05 03:15:13;;;;;;;4.00;2.00;;;;;;;;;;81046;283;3031451;-30
2024/01/05 03:17:50;;;;;;;3.80;1.80;;;;;;;;;;82343;284;3032204;-30
2024/01/05 03:20:27;;;;;;;3.80;2.00;;;;;;;;;;82448;272;3028766;-30
2024/01/05 03:23:04;;;;;;;3.80;1.70;;;;;;;;;;81242;276;3028271;-30
2024/01/05 03:25:41;;;;;;;4.00;1.70;;;;;;;;;;81049;284;3031172;-30
2024/01/05 03:28:20;;;;;;;3.90;1.80;;;;;;;;;;80951;283;3037588;-30
2024/01/05 03:30:56;;;;;;;3.50;1.60;;;;;;;;;;81037;276;3028148;-30
2024/01/05 03:33:37;;;;;;;3.80;1.80;;;;;;;;;;81025;276;3027078;-30
2024/01/05 03:36:16;;;;;;;3.80;1.70;;;;;;;;;;80977;276;3031044;-30
2024/01/05 03:38:55;;;;;;;3.80;1.80;;;;;;;;;;81005;280;3038249;-30
2024/01/05 03:41:31;;;;;;;3.20;1.60;;;;;;;;;;81046;279;3028564;-30
2024/01/05 03:44:08;;;;;;;3.20;1.50;;;;;;;;;;81016;271;3027741;-30
2024/01/05 03:46:44;;;;;;;3.10;1.50;;;;;;;;;;81184;279;3031006;-30
2024/01/05 03:49:20;;;;;;;3.20;1.40;;;;;;;;;;81040;283;3031174;-30
2024/01/05 03:51:59;;;;;;;3.10;1.50;;;;;;;;;;80935;284;3028194;-30
2024/01/05 03:54:38;;;;;;;4.00;1.70;;;;;;;;;;81012;283;3027637;-30
2024/01/05 03:57:15;;;;;;;3.10;1.40;;;;;;;;;;81039;280;3030817;-30
2024/01/05 03:59:54;;;;;;;3.80;1.60;;;;;;;;;;81025;276;3031630;-30
2024/01/05 04:02:30;;;;;;;3.50;1.50;;;;;;;;;;81011;283;3029035;-30
2024/01/05 04:05:09;;;;;;;3.70;1.60;;;;;;;;;;81035;276;3027259;-30
2024/01/05 04:07:45;;;;;;;3.60;1.50;;;;;;;;;;82338;280;3030978;-30
2024/01/05 04:10:21;;;;;;;3.60;1.50;;;;;;;;;;82332;272;3031240;-30
2024/01/05 04:12:57;;;;;;;3.70;1.50;;;;;;;;;;82141;284;3028693;-30
2024/01/05 04:15:38;;;;;;;3.30;1.50;;;;;;;;;;81028;276;3028104;-30
2024/01/05 04:18:16;;;;;;;3.10;1.30;;;;;;;;;;81235;276;3030765;-30
2024/01/05 04:20:52;;;;;;;3.30;1.50;;;;;;;;;;81043;272;3031973;-30
2024/01/05 04:23:30;;;;;;;3.30;1.40;;;;;;;;;;81005;284;3028790;-30
2024/01/05 04:26:07;;;;;;;3.60;1.40;;;;;;;;;;80991;276;3027791;-30
2024/01/05 04:28:43;;;;;;;3.10;1.40;;;;;;;;;;82360;280;3031109;-30
2024/01/05 04:31:19;;;;;;;3.70;1.40;;;;;;;;;;82332;280;3031222;-30
2024/01/05 04:33:57;;;;;;;3.60;1.60;;;;;;;;;;81021;283;3028423;-30
2024/01/05 04:36:36;;;;;;;3.70;1.50;;;;;;;;;;81000;276;3027570;-30
2024/01/05 04:39:16;;;;;;;4.40;1.60;;;;;;;;;;80981;284;3031189;-30
2024/01/05 04:41:54;;;;;;;4.00;1.50;;;;;;;;;;80999;276;3031701;-30
2024/01/05 04:44:33;;;;;;;4.10;1.40;;;;;;;;;;81031;283;3028721;-30
2024/01/05 04:47:13;;;;;;;4.40;1.40;;;;;;;;;;81058;276;3027346;-30
2024/01/05 04:49:50;;;;;;;3.90;1.50;;;;;;;;;;81016;279;3030774;-30
2024/01/05 04:52:28;;;;;;;3.40;1.30;;;;;;;;;;80984;272;3032011;-30
2024/01/05 04:55:14;;;;;;;3.30;1.30;;;;;;;;;;81017;284;3028557;-30
2024/01/05 04:57:52;;;;;;;4.00;1.40;;;;;;;;;;81012;279;3027600;-30
2024/01/05 05:00:30;;;;;;;3.80;1.30;;;;;;;;;;80996;284;3036275;-30
2024/01/05 05:03:11;;;;;;;3.80;1.30;;;;;;;;;;81005;276;3031963;-30
2024/01/05 05:05:48;;;;;;;3.80;1.20;;;;;;;;;;81582;280;3028581;-30
2024/01/05 05:08:24;;;;;;;3.50;1.20;;;;;;;;;;81007;283;3029325;-30
2024/01/05 05:11:05;;;;;;;3.20;1.20;;;;;;;;;;80981;279;3038292;-30
2024/01/05 05:13:44;;;;;;;3.90;1.30;;;;;;;;;;81008;283;3032661;-30
2024/01/05 05:16:20;;;;;;;3.50;1.40;;;;;;;;;;80994;272;3028315;-30
2024/01/05 05:18:57;;;;;;;3.40;1.40;;;;;;;;;;81002;272;3027396;-30
2024/01/05 05:21:35;;;;;;;3.20;1.20;;;;;;;;;;81019;280;3030625;-30
2024/01/05 05:24:12;;;;;;;3.60;1.10;;;;;;;;;;82337;284;3032313;-30
2024/01/05 05:26:48;;;;;;;3.10;1.30;;;;;;;;;;82420;287;3028608;-30
2024/01/05 05:29:24;;;;;;;3.90;1.20;;;;;;;;;;82307;284;3028116;-30
2024/01/05 05:32:01;;;;;;;2.90;1.20;;;;;;;;;;81649;276;3030455;-30
2024/01/05 05:34:37;;;;;;;3.00;1.10;;;;;;;;;;81033;284;3031991;-30
2024/01/05 05:37:15;;;;;;;2.80;1.10;;;;;;;;;;80997;279;3029221;-30
2024/01/05 05:39:53;;;;;;;2.60;0.90;;;;;;;;;;81003;276;3027923;-30
2024/01/05 05:42:31;;;;;;;2.50;1.00;;;;;;;;;;81020;275;3032835;-30
2024/01/05 05:45:11;;;;;;;3.40;1.20;;;;;;;;;;80987;276;3032388;-30
2024/01/05 05:47:47;;;;;;;3.00;1.10;;;;;;;;;;81476;276;3028620;-30
2024/01/05 05:50:26;;;;;;;3.00;1.00;;;;;;;;;;81005;284;3027507;-30
2024/01/05 05:53:06;;;;;;;3.00;1.10;;;;;;;;;;80969;284;3029416;-30
2024/01/05 05:55:46;;;;;;;3.10;1.00;;;;;;;;;;80968;284;3032010;-30
2024/01/05 05:58:24;;;;;;;3.10;1.00;;;;;;;;;;80939;284;3028586;-30
2024/01/05 06:01:05;;;;;;;3.10;1.00;;;;;;;;;;80944;285;3027266;-30
2024/01/05 06:03:45;;;;;;;3.50;1.10;;;;;;;;;;80965;284;3030588;-30
2024/01/05 06:06:25;;;;;;;2.90;1.10;;;;;;;;;;80960;284;3032311;-30
2024/01/05 06:09:02;;;;;;;3.20;1.10;;;;;;;;;;80975;284;3027938;-30
2024/01/05 06:11:39;;;;;;;2.40;0.90;;;;;;;;;;80954;284;3027188;-30
2024/01/05 06:14:20;;;;;;;2.80;1.00;;;;;;;;;;80943;284;3031396;-30
2024/01/05 06:16:59;;;;;;;2.50;1.10;;;;;;;;;;80950;284;3031711;-30
2024/01/05 06:19:35;;;;;;;2.20;0.90;;;;;;;;;;80952;284;3028815;-30
2024/01/05 06:22:14;;;;;;;3.30;0.90;;;;;;;;;;80926;284;3028015;-31
2024/01/05 06:24:52;;;;;;;2.70;1.10;;;;;;;;;;80993;284;3030817;-31
2024/01/05 06:27:28;;;;;;;3.60;1.10;;;;;;;;;;81076;284;3031898;-31
2024/01/05 06:30:15;;;;;;;2.80;1.00;;;;;;;;;;81006;272;3028355;-28
2024/01/05 06:32:51;;;;;;;3.30;1.00;;;;;;;;;;80990;284;3033888;-28
2024/01/05 06:35:30;;;;;;;3.00;1.00;;;;;;;;;;80901;284;3031530;-28
2024/01/05 06:38:08;;;;;;;2.50;1.20;;;;;;;;;;80919;284;3031490;-28
2024/01/05 06:40:45;;;;;;;2.60;0.90;;;;;;;;;;80977;276;3028607;-28
2024/01/05 06:43:21;;;;;;;2.80;1.00;;;;;;;;;;81051;276;3027269;-28
2024/01/05 06:45:57;;;;;;;2.60;1.10;;;;;;;;;;81060;276;3031055;-28
2024/01/05 06:48:33;;;;;;;2.70;1.00;;;;;;;;;;81027;279;3031352;-28
2024/01/05 06:51:14;;;;;;;2.80;0.90;;;;;;;;;;80980;283;3028292;-28
2024/01/05 06:53:51;;;;;;;2.60;0.90;;;;;;;;;;81021;280;3027616;-28
2024/01/05 06:56:32;;;;;;;3.30;1.10;;;;;;;;;;81015;284;3030608;-28
2024/01/05 06:59:11;;;;;;;2.30;0.90;;;;;;;;;;81006;284;3031551;-28
2024/01/05 07:01:50;;;;;;;1.90;0.80;;;;;;;;;;80953;284;3028470;-28
2024/01/05 07:04:26;;;;;;;2.50;1.00;;;;;;;;;;81034;272;3027883;-28
2024/01/05 07:07:05;;;;;;;2.80;1.00;;;;;;;;;;81042;283;3031325;-28
2024/01/05 07:09:41;;;;;;;3.00;1.10;;;;;;;;;;81101;284;3031120;-28
2024/01/05 07:12:19;;;;;;;2.50;1.10;;;;;;;;;;81016;280;3027993;-28
2024/01/05 07:14:55;;;;;;;2.50;1.00;;;;;;;;;;81015;284;3027859;-28
2024/01/05 07:17:33;;;;;;;2.90;1.10;;;;;;;;;;81023;283;3030758;-28
2024/01/05 07:20:12;;;;;;;3.70;1.10;;;;;;;;;;81014;276;3031858;-28
2024/01/05 07:22:48;;;;;;;3.20;1.10;;;;;;;;;;81054;276;3027893;-28
2024/01/05 07:25:25;;;;;;;3.50;1.20;;;;;;;;;;81044;276;3027904;-28
2024/01/05 07:28:03;;;;;;;4.50;1.40;;;;;;;;;;80996;272;3031203;-28
2024/01/05 07:30:41;;;;;;;3.80;1.40;;;;;;;;;;81021;283;3031732;-28
2024/01/05 07:33:23;;;;;;;3.90;1.50;;;;;;;;;;80951;283;3028779;-29
2024/01/05 07:36:06;;;;;;;3.80;1.50;;;;;;;;;;80985;284;3027660;-31
2024/01/05 07:38:42;;;;;;;4.30;1.30;;;;;;;;;;82375;276;3030703;-31
2024/01/05 07:41:20;;;;;;;5.40;1.50;;;;;;;;;;81703;276;3031250;-29
2024/01/05 07:43:58;;;;;;;3.50;1.20;;;;;;;;;;81000;283;3028569;-29
2024/01/05 07:46:45;;;;;;;3.60;1.50;;;;;;;;;;81019;283;3027488;-30
2024/01/05 07:49:21;;;;;;;4.30;1.40;;;;;;;;;;81020;271;3030598;-31
2024/01/05 07:52:05;;;;;;;4.10;1.40;;;;;;;;;;80960;281;3031950;-31
2024/01/05 07:54:44;;;;;;;4.10;1.30;;;;;;;;;;82420;272;3035537;-29
2024/01/05 07:57:20;;;;;;;4.40;1.60;;;;;;;;;;82305;276;3027294;-29
2024/01/05 07:59:56;;;;;;;3.80;1.50;;;;;;;;;;82393;280;3030772;-29
2024/01/05 08:02:32;;;;;;;3.70;1.50;;;;;;;;;;82352;280;3031771;-30
2024/01/05 08:05:13;;;;;;;3.80;1.30;;;;;;;;;;81027;283;3027873;-29
2024/01/05 08:07:49;;;;;;;3.80;1.40;;;;;;;;;;82385;272;3027938;-29
2024/01/05 08:10:25;;;;;;;4.50;1.40;;;;;;;;;;82324;276;3032074;-29
2024/01/05 08:13:01;;;;;;;4.70;1.60;;;;;;;;;;82397;272;3031062;-29
2024/01/05 08:15:37;;;;;;;4.10;1.50;;;;;;;;;;81561;276;3029839;-29
2024/01/05 08:18:16;;;;;;;3.90;1.50;;;;;;;;;;81025;272;3027219;-29
2024/01/05 08:20:55;;;;;;;4.40;1.40;;;;;;;;;;81027;276;3031115;-29
2024/01/05 08:23:31;;;;;;;4.50;1.60;;;;;;;;;;80994;276;3031627;-29
2024/01/05 08:26:08;;;;;;;3.90;1.40;;;;;;;;;;81035;276;3028525;-29
2024/01/05 08:28:47;;;;;;;4.30;1.40;;;;;;;;;;81084;280;3027870;-29
2024/01/05 08:31:26;;;;;;;4.60;1.40;;;;;;;;;;81047;284;3030999;-29
2024/01/05 08:34:04;;;;;;;3.60;1.30;;;;;;;;;;80999;276;3031726;-29
2024/01/05 08:36:41;;;;;;;4.10;1.40;;;;;;;;;;80981;283;3028599;-29
2024/01/05 08:39:17;;;;;;;4.20;1.50;;;;;;;;;;81018;283;3028111;-28
2024/01/05 08:41:53;;;;;;;5.20;1.40;;;;;;;;;;80894;284;3031927;-27
2024/01/05 08:44:30;;;;;;;3.80;1.40;;;;;;;;;;80986;280;3031613;-28
2024/01/05 08:47:06;;;;;;;3.90;1.50;;;;;;;;;;80965;284;3028821;-29
2024/01/05 08:49:42;;;;;;;4.30;1.80;;;;;;;;;;80982;280;3028746;-28
2024/01/05 08:52:18;;;;;;;5.00;1.70;;;;;;;;;;80976;276;3031575;-28
2024/01/05 08:54:58;;;;;;;5.70;2.00;;;;;;;;;;80978;272;3032053;-29
2024/01/05 08:57:36;;;;;;;4.70;1.70;;;;;;;;;;80794;285;3028621;-31
2024/01/05 09:00:15;;;;;;;4.20;1.90;;;;;;;;;;80971;284;3027384;-31
2024/01/05 09:02:52;;;;;;;4.40;1.90;;;;;;;;;;82312;283;3031002;-31
2024/01/05 09:05:28;;;;;;;4.90;1.70;;;;;;;;;;82290;283;3031488;-31
2024/01/05 09:08:05;;;;;;;4.20;2.00;;;;;;;;;;82380;280;3028008;-31
2024/01/05 09:10:41;;;;;;;4.10;1.90;;;;;;;;;;82310;276;3027414;-31
2024/01/05 09:13:16;;;;;;;3.80;1.70;;;;;;;;;;82406;276;3030481;-31
2024/01/05 09:15:53;;;;;;;4.10;1.70;;;;;;;;;;82299;272;3031828;-32
2024/01/05 09:18:33;;;;;;;4.20;1.70;;;;;;;;;;82387;272;3028348;-32
2024/01/05 09:21:12;;;;;;;5.20;1.80;;;;;;;;;;81364;283;3027248;-29
2024/01/05 09:23:48;;;;;;;3.90;1.70;;;;;;;;;;80980;284;3030838;-28
2024/01/05 09:26:26;;;;;;;4.80;1.60;;;;;;;;;;81019;283;3040948;-28
2024/01/05 09:29:04;;;;;;;4.00;1.60;;;;;;;;;;80998;283;3028445;-27
2024/01/05 09:31:48;;;;;;;4.60;1.60;;;;;;;;;;80995;276;3027608;-29
2024/01/05 09:34:25;;;;;;;4.10;1.60;;;;;;;;;;80967;276;3031485;-31
2024/01/05 09:37:03;;;;;;;4.30;1.60;;;;;;;;;;82163;280;3032762;-31
2024/01/05 09:39:40;;;;;;;3.60;1.60;;;;;;;;;;81109;280;3028069;-31
2024/01/05 09:42:18;;;;;;;4.10;1.60;;;;;;;;;;81029;280;3028015;-31
2024/01/05 09:44:56;;;;;;;3.80;1.60;;;;;;;;;;80959;283;3031187;-31
2024/01/05 09:47:33;;;;;;;3.30;1.40;;;;;;;;;;82381;280;3032049;-31
2024/01/05 09:50:16;;;;;;;3.70;1.50;;;;;;;;;;81499;276;3028216;-30
2024/01/05 09:52:52;;;;;;;3.80;1.50;;;;;;;;;;82393;273;3027557;-30
2024/01/05 09:55:29;;;;;;;3.60;1.50;;;;;;;;;;82240;280;3031027;-30
2024/01/05 09:58:05;;;;;;;3.50;1.40;;;;;;;;;;80964;280;3031618;-31
2024/01/05 10:00:44;;;;;;;3.70;1.60;;;;;;;;;;82344;280;3028379;-31
2024/01/05 10:03:28;;;;;;;3.00;1.40;;;;;;;;;;81238;280;3027105;-30
2024/01/05 10:06:04;;;;;;;3.70;1.50;;;;;;;;;;80953;276;3031463;-31
2024/01/05 10:08:42;;;;;;;3.50;1.50;;;;;;;;;;81013;276;3031948;-31
2024/01/05 10:11:32;;;;;;;4.60;1.70;;;;;;;;;;80978;276;3029066;-31
2024/01/05 10:14:14;;;;;;;3.30;1.30;;;;;;;;;;80977;276;3027962;-31
2024/01/05 10:16:50;;;;;;;3.80;1.50;;;;;;;;;;80995;284;3030558;-31
2024/01/05 10:19:27;;;;;;;3.90;1.50;;;;;;;;;;81004;276;3032014;-31
2024/01/05 10:22:13;;;;;;;3.60;1.40;;;;;;;;;;81002;276;3028381;-31
2024/01/05 10:24:49;;;;;;;4.00;1.40;;;;;;;;;;82403;279;3027092;-31
2024/01/05 10:27:31;;;;;;;3.40;1.50;;;;;;;;;;82246;285;3031260;-31
2024/01/05 10:30:11;;;;;;;3.70;1.40;;;;;;;;;;81054;276;3031880;-31
2024/01/05 10:32:48;;;;;;;3.70;1.50;;;;;;;;;;81720;280;3028373;-31
2024/01/05 10:35:29;;;;;;;3.50;1.50;;;;;;;;;;81009;276;3027604;-31
2024/01/05 10:38:10;;;;;;;3.20;1.30;;;;;;;;;;80953;283;3037974;-31
2024/01/05 10:40:46;;;;;;;3.50;1.40;;;;;;;;;;82441;279;3033299;-31
2024/01/05 10:43:26;;;;;;;4.00;1.40;;;;;;;;;;82328;281;3028828;-31
2024/01/05 10:46:05;;;;;;;3.50;1.40;;;;;;;;;;81393;276;3027655;-29
2024/01/05 10:48:42;;;;;;;4.00;1.40;;;;;;;;;;81018;276;3038222;-29
2024/01/05 10:51:24;;;;;;;3.30;1.30;;;;;;;;;;81017;283;3031677;-29
2024/01/05 10:54:01;;;;;;;4.90;1.60;;;;;;;;;;81030;276;3028353;-30
2024/01/05 10:56:39;;;;;;;4.60;1.50;;;;;;;;;;80987;284;3027321;-30
2024/01/05 10:59:20;;;;;;;3.60;1.30;;;;;;;;;;80991;276;3030944;-30
2024/01/05 11:02:00;;;;;;;3.40;1.40;;;;;;;;;;81005;280;3031439;-29
2024/01/05 11:04:40;;;;;;;4.40;1.40;;;;;;;;;;81017;284;3028473;-29
2024/01/05 11:07:19;;;;;;;2.80;1.10;;;;;;;;;;80994;283;3028033;-29
2024/01/05 11:10:15;;;;;;;3.50;1.30;;;;;;;;;;80983;276;3030866;-29
2024/01/05 11:13:15;;;;;;;3.50;1.40;;;;;;;;;;80975;276;3031582;-30
2024/01/05 11:16:18;;;;;;;4.30;1.40;;;;;;;;;;81001;284;3028464;-29
2024/01/05 11:19:17;;;;;;;4.60;1.30;;;;;;;;;;82119;281;3028632;-29
2024/01/05 11:22:00;;;;;;;3.70;1.30;;;;;;;;;;82302;284;3030673;-29
2024/01/05 11:24:38;;;;;;;3.20;1.10;;;;;;;;;;81767;280;3031201;-30
2024/01/05 11:27:32;;;;;;;3.20;1.10;;;;;;;;;;80943;280;3028781;-30
2024/01/05 11:30:09;;;;;;;;;;;;;;;;;;82304;284;3027122;-29
2024/01/05 11:32:46;;;;;;;3.20;1.00;;;;;;;;;;82312;280;3030615;-29
2024/01/05 11:35:45;;;;;;;3.90;1.20;;;;;;;;;;82354;273;3032654;-29
2024/01/05 11:38:33;;;;;;;2.70;1.10;;;;;;;;;;80883;276;3027896;-30
2024/01/05 11:41:21;;;;;;;2.80;1.10;;;;;;;;;;80936;284;3027375;-30
2024/01/05 11:43:57;;;;;;;2.80;1.10;;;;;;;;;;82347;280;3030547;-30
2024/01/05 11:46:54;;;;;;;3.30;1.10;;;;;;;;;;81104;283;3031885;-29
2024/01/05 11:49:44;;;;;;;3.30;1.20;;;;;;;;;;81767;280;3027917;-28
2024/01/05 11:52:20;;;;;;;3.00;1.00;;;;;;;;;;82368;284;3028670;-30
2024/01/05 11:55:13;;;;;;;3.20;1.00;;;;;;;;;;82328;280;3030951;-30
2024/01/05 11:57:52;;;;;;;3.40;1.00;;;;;;;;;;82282;284;3032063;-29
2024/01/05 12:00:28;;;;;;;2.70;1.00;;;;;;;;;;82321;276;3027664;-28
2024/01/05 12:03:06;;;;;;;3.50;1.30;;;;;;;;;;82358;280;3027810;-29
2024/01/05 12:05:43;;;;;;;3.00;1.00;;;;;;;;;;82353;272;3030388;-29
2024/01/05 12:08:21;;;;;;;3.70;1.10;;;;;;;;;;82385;272;3031342;-29
2024/01/05 12:11:00;;;;;;;3.10;1.00;;;;;;;;;;82376;279;3027927;-29
2024/01/05 12:13:39;;;;;;;3.10;1.10;;;;;;;;;;82383;280;3027268;-29
2024/01/05 12:16:15;;;;;;;2.80;1.10;;;;;;;;;;81586;280;3030649;-31
2024/01/05 12:18:52;;;;;;;2.60;1.00;;;;;;;;;;82097;280;3031676;-32
2024/01/05 12:21:33;;;;;;;2.50;0.90;;;;;;;;;;80933;284;3028603;-32
2024/01/05 12:24:19;;;;;;;2.30;0.90;;;;;;;;;;81022;283;3027131;-32
2024/01/05 12:26:57;;;;;;;2.40;0.80;;;;;;;;;;80994;276;3031039;-31
2024/01/05 12:29:34;;;;;;;2.50;1.00;;;;;;;;;;80962;283;3031880;-32
2024/01/05 12:32:11;;;;;;;3.70;0.90;;;;;;;;;;80969;283;3027894;-32
2024/01/05 12:34:47;;;;;;;3.70;1.10;;;;;;;;;;82401;272;3027932;-31
2024/01/05 12:37:24;;;;;;;4.30;1.20;;;;;;;;;;81841;280;3030553;-31
2024/01/05 12:40:16;;;;;;;4.20;1.20;;;;;;;;;;80970;283;3031764;-31
2024/01/05 12:42:53;;;;;;;4.70;1.20;;;;;;;;;;82377;272;3027808;-32
2024/01/05 12:45:30;;;;;;;4.70;1.20;;;;;;;;;;81564;276;3027226;-32
2024/01/05 12:48:17;;;;;;;3.70;1.10;;;;;;;;;;80973;280;3031381;-33
2024/01/05 12:51:05;;;;;;;3.50;1.00;;;;;;;;;;81521;272;3031908;-33
2024/01/05 12:53:42;;;;;;;3.70;1.00;;;;;;;;;;81186;276;3029421;-33
2024/01/05 12:56:21;;;;;;;3.30;1.10;;;;;;;;;;81033;276;3027143;-32
2024/01/05 12:58:59;;;;;;;3.30;1.00;;;;;;;;;;80965;280;3031625;-31
2024/01/05 13:01:41;;;;;;;3.70;1.10;;;;;;;;;;81023;284;3032142;-32
2024/01/05 13:04:31;;;;;;;2.60;1.00;;;;;;;;;;80955;284;3030223;-32
2024/01/05 13:07:15;;;;;;;3.60;0.90;;;;;;;;;;81004;285;3027294;-32
2024/01/05 13:09:52;;;;;;;3.10;1.20;;;;;;;;;;81048;276;3031522;-32
2024/01/05 13:12:30;;;;;;;3.90;1.00;;;;;;;;;;80990;284;3031712;-32
2024/01/05 13:15:10;;;;;;;3.00;0.90;;;;;;;;;;81020;280;3027953;-32
2024/01/05 13:17:51;;;;;;;3.10;1.00;;;;;;;;;;81097;277;3027939;-32
2024/01/05 13:20:28;;;;;;;3.70;1.10;;;;;;;;;;81006;276;3031997;-32
2024/01/05 13:23:07;;;;;;;3.40;1.10;;;;;;;;;;81013;272;3031291;-33
2024/01/05 13:25:45;;;;;;;3.20;1.30;;;;;;;;;;80979;276;3028228;-34
2024/01/05 13:28:22;;;;;;;3.80;1.00;;;;;;;;;;81025;276;3027669;-33
2024/01/05 13:30:57;;;;;;;2.90;1.10;;;;;;;;;;81002;272;3030832;-34
2024/01/05 13:33:35;;;;;;;3.60;1.10;;;;;;;;;;81040;276;3031274;-33
2024/01/05 13:36:14;;;;;;;3.90;1.20;;;;;;;;;;81009;276;3028896;-32
2024/01/05 13:38:53;;;;;;;3.40;1.20;;;;;;;;;;81057;276;3027885;-33
2024/01/05 13:41:29;;;;;;;3.40;1.10;;;;;;;;;;81055;276;3031344;-34
2024/01/05 13:44:08;;;;;;;3.60;1.10;;;;;;;;;;80991;276;3031838;-34
2024/01/05 13:46:44;;;;;;;3.30;1.10;;;;;;;;;;81032;279;3028327;-33
2024/01/05 13:49:23;;;;;;;4.50;1.20;;;;;;;;;;81040;283;3027892;-33
2024/01/05 13:52:04;;;;;;;3.20;1.20;;;;;;;;;;81009;279;3031302;-33
2024/01/05 13:54:41;;;;;;;3.40;1.10;;;;;;;;;;81005;283;3031722;-33
2024/01/05 13:57:17;;;;;;;3.20;1.10;;;;;;;;;;81807;280;3027895;-33
2024/01/05 13:59:54;;;;;;;4.00;1.30;;;;;;;;;;81059;284;3027865;-33
2024/01/05 14:02:32;;;;;;;3.30;1.10;;;;;;;;;;80995;276;3038321;-33
2024/01/05 14:05:11;;;;;;;2.70;0.90;;;;;;;;;;81034;276;3031302;-32
2024/01/05 14:07:48;;;;;;;3.00;1.20;;;;;;;;;;81162;284;3028447;-33
2024/01/05 14:10:26;;;;;;;3.10;1.10;;;;;;;;;;80998;276;3028129;-32
2024/01/05 14:13:05;;;;;;;3.30;1.10;;;;;;;;;;81017;283;3036529;-33
2024/01/05 14:15:42;;;;;;;3.30;1.30;;;;;;;;;;81003;284;3031567;-32
2024/01/05 14:18:19;;;;;;;3.00;1.10;;;;;;;;;;80984;283;3028787;-33
2024/01/05 14:20:55;;;;;;;3.50;1.10;;;;;;;;;;80988;272;3029693;-33
2024/01/05 14:23:38;;;;;;;2.80;1.10;;;;;;;;;;80981;284;3030542;-33
2024/01/05 14:26:15;;;;;;;3.30;1.20;;;;;;;;;;80992;280;3031900;-33
2024/01/05 14:28:51;;;;;;;2.90;1.20;;;;;;;;;;81023;283;3028416;-33
2024/01/05 14:31:33;;;;;;;2.70;1.20;;;;;;;;;;80974;284;3027882;-32
2024/01/05 14:34:09;;;;;;;2.80;1.10;;;;;;;;;;81018;276;3030766;-34
2024/01/05 14:36:46;;;;;;;3.10;1.10;;;;;;;;;;81004;276;3031785;-33
2024/01/05 14:39:27;;;;;;;3.20;1.10;;;;;;;;;;80986;284;3028103;-33
2024/01/05 14:42:04;;;;;;;3.20;1.10;;;;;;;;;;80959;276;3027950;-33
2024/01/05 14:44:40;;;;;;;3.00;1.20;;;;;;;;;;81836;280;3030984;-34
2024/01/05 14:47:17;;;;;;;3.30;1.30;;;;;;;;;;81030;283;3031938;-34
2024/01/05 14:49:53;;;;;;;3.40;1.10;;;;;;;;;;81592;280;3028740;-34
2024/01/05 14:52:30;;;;;;;3.10;1.20;;;;;;;;;;80931;274;3027474;-34
2024/01/05 14:55:09;;;;;;;2.90;1.20;;;;;;;;;;81019;276;3031275;-33
2024/01/05 14:57:45;;;;;;;2.70;1.20;;;;;;;;;;82381;280;3031913;-33
2024/01/05 15:00:22;;;;;;;3.00;1.20;;;;;;;;;;82345;276;3029048;-33
2024/01/05 15:02:59;;;;;;;3.60;1.20;;;;;;;;;;82308;280;3027742;-33
2024/01/05 15:05:35;;;;;;;3.50;1.30;;;;;;;;;;81018;276;3031408;-34
2024/01/05 15:08:11;;;;;;;3.10;1.30;;;;;;;;;;80964;283;3031610;-33
2024/01/05 15:10:52;;;;;;;3.10;1.20;;;;;;;;;;81008;276;3028520;-33
2024/01/05 15:13:29;;;;;;;3.50;1.20;;;;;;;;;;80880;277;3028071;-34
2024/01/05 15:16:08;;;;;;;3.20;1.30;;;;;;;;;;81009;283;3031547;-34
2024/01/05 15:18:45;;;;;;;3.50;1.50;;;;;;;;;;81705;276;3031715;-33
2024/01/05 15:21:27;;;;;;;5.70;2.90;;;;;;;;;;80917;284;3028581;-33
2024/01/05 15:24:03;;;;;;;6.30;3.20;;;;;;;;;;82322;280;3027520;-33
2024/01/05 15:26:48;;;;;;;7.90;5.70;;;;;;;;;;81761;272;3030584;-34
2024/01/05 15:29:25;;;;;;;12.30;9.70;;;;;;;;;;80979;279;3035023;-33
2024/01/05 15:32:01;;;;;;;11.60;10.30;;;;;;;;;;80993;283;3028913;-33
2024/01/05 15:34:39;;;;;;;10.30;7.20;;;;;;;;;;81002;283;3036025;-32
2024/01/05 15:37:16;;;;;;;8.80;6.30;;;;;;;;;;81007;276;3032047;-33